CheckWX is a tool to help pilots better visualize weather data.  It is not intended as a substitute for an official pre-flight weather briefing.

04:08:54 UTC

EFJO METAR
Joensuu Airport
Joensuu / Liperi, Finland
Current

19 mins ago

EFJO 250350Z 11001KT CAVOK 06/01 Q1025
Observed
Apr-25 @ 03:50 UTC
Wind
  • 110° at 1 KTS
Visibility
10,000+ meters
Flight Rules
VFR
Cloud Levels
  • Clear skies
Temperature
C / 43°F
Dewpoint
C / 34°F
Humidity
71%
Altimeter
30.27" Hg
Pressure
1024.92 hPa
Previous

49 mins ago

EFJO 250320Z 12001KT CAVOK 04/00 Q1025
Observed
Apr-25 @ 03:20 UTC
Wind
  • 120° at 1 KTS
Visibility
10,000+ meters
Flight Rules
VFR
Cloud Levels
  • Clear skies
Temperature
C / 39°F
Dewpoint
C / 32°F
Humidity
75%
Altimeter
30.27" Hg
Pressure
1024.92 hPa
Previous

2 hours ago

EFJO 250220Z 29002KT CAVOK 05/M01 Q1025
Observed
Apr-25 @ 02:20 UTC
Wind
  • 290° at 2 KTS
Visibility
10,000+ meters
Flight Rules
VFR
Cloud Levels
  • Clear skies
Temperature
C / 41°F
Dewpoint
-1°C / 30°F
Humidity
66%
Altimeter
30.27" Hg
Pressure
1024.92 hPa